createdAt,value
2023-05-11T00:04:37.835Z,2.00
2023-05-11T00:09:41.565Z,1.05
2023-05-11T00:14:43.063Z,1.02
2023-05-11T00:19:44.604Z,1.17
2023-05-11T00:24:46.143Z,1.52
2023-05-11T00:29:47.646Z,1.90
2023-05-11T00:34:49.214Z,1.50
2023-05-11T00:39:50.800Z,1.77
2023-05-11T00:44:52.324Z,2.67
2023-05-11T00:49:53.821Z,1.88
2023-05-11T00:54:55.611Z,1.92
2023-05-11T00:59:57.279Z,2.10
2023-05-11T01:04:58.824Z,2.33
2023-05-11T01:10:13.541Z,1.92
2023-05-11T01:15:23.383Z,1.50
2023-05-11T01:20:27.085Z,1.60
2023-05-11T01:25:40.024Z,1.70
2023-05-11T01:30:47.375Z,2.38
2023-05-11T01:35:51.765Z,1.42
2023-05-11T01:40:55.962Z,1.67
2023-05-11T01:46:00.209Z,1.92
2023-05-11T01:51:02.507Z,1.40
2023-05-11T01:56:04.181Z,1.70
2023-05-11T02:01:06.645Z,1.50
2023-05-11T02:06:08.172Z,1.65
2023-05-11T02:11:10.481Z,1.50
2023-05-11T02:16:12.047Z,1.23
2023-05-11T02:21:13.617Z,1.05
2023-05-11T02:26:15.266Z,1.00
2023-05-11T02:31:18.106Z,1.30
2023-05-11T02:41:23.369Z,1.00
2023-05-11T02:46:28.067Z,1.08
2023-05-11T02:51:39.412Z,0.98
2023-05-11T02:56:41.089Z,1.10
2023-05-11T03:01:42.656Z,2.63
2023-05-11T03:06:44.214Z,2.00
2023-05-11T03:11:45.818Z,1.00
2023-05-11T03:16:47.697Z,0.70
2023-05-11T03:21:50.227Z,0.90
2023-05-11T03:26:52.416Z,1.00
2023-05-11T03:31:54.537Z,1.88
2023-05-11T03:36:56.028Z,1.17
2023-05-11T03:41:57.510Z,1.30
2023-05-11T03:46:58.995Z,1.23
2023-05-11T03:52:00.478Z,1.85
2023-05-11T03:57:01.963Z,1.73
2023-05-11T04:02:03.536Z,1.60
2023-05-11T04:07:05.026Z,1.60
2023-05-11T04:12:06.724Z,3.25
2023-05-11T04:17:08.222Z,2.75
2023-05-11T04:22:12.106Z,2.40
2023-05-11T04:27:13.602Z,1.10
2023-05-11T04:32:15.683Z,1.50
2023-05-11T04:37:17.196Z,2.75
2023-05-11T04:42:18.699Z,1.70
2023-05-11T04:47:20.198Z,1.88
2023-05-11T04:52:21.733Z,2.60
2023-05-11T04:57:23.258Z,2.60
2023-05-11T05:02:24.821Z,1.90
2023-05-11T05:07:26.843Z,2.88
2023-05-11T05:12:28.328Z,0.90
2023-05-11T05:17:29.931Z,1.67
2023-05-11T05:22:34.271Z,1.30
2023-05-11T05:27:36.198Z,1.17
2023-05-11T05:32:37.732Z,1.88
2023-05-11T05:37:39.227Z,1.35
2023-05-11T05:42:40.823Z,1.10
2023-05-11T05:47:42.477Z,2.85
2023-05-11T05:52:44.053Z,1.00
2023-05-11T05:57:45.861Z,1.02
2023-05-11T06:02:47.436Z,1.15
2023-05-11T06:08:01.882Z,1.95
2023-05-11T06:13:10.375Z,1.30
2023-05-11T06:18:11.912Z,1.00
2023-05-11T06:23:13.444Z,0.70
2023-05-11T06:28:14.985Z,1.20
2023-05-11T06:33:16.470Z,0.88
2023-05-11T06:38:28.529Z,1.73
2023-05-11T06:43:30.112Z,2.00
2023-05-11T06:48:31.685Z,0.70
2023-05-11T06:53:33.282Z,2.05
2023-05-11T06:58:34.807Z,0.90
2023-05-11T07:03:36.424Z,0.50
2023-05-11T07:08:37.953Z,0.88
2023-05-11T07:13:39.522Z,1.00
2023-05-11T07:18:41.081Z,1.65
2023-05-11T07:23:42.941Z,1.23
2023-05-11T07:28:44.475Z,1.00
2023-05-11T07:33:46.102Z,3.10
2023-05-11T07:38:47.666Z,1.00
2023-05-11T07:43:49.256Z,1.10
2023-05-11T07:48:57.490Z,0.60
2023-05-11T07:54:05.624Z,0.85
2023-05-11T07:59:07.215Z,0.82
2023-05-11T08:04:38.150Z,1.00
2023-05-11T08:09:39.657Z,0.90
2023-05-11T08:14:43.457Z,0.80
2023-05-11T08:19:44.989Z,1.00
2023-05-11T08:24:46.930Z,0.75
2023-05-11T08:29:48.407Z,0.60
2023-05-11T08:34:50.036Z,1.42
2023-05-11T08:39:51.650Z,1.65
2023-05-11T08:44:55.354Z,0.82
2023-05-11T08:49:58.319Z,0.70
2023-05-11T08:54:59.819Z,3.35
2023-05-11T09:00:05.129Z,0.57
2023-05-11T09:05:06.871Z,0.50
2023-05-11T09:10:09.246Z,0.80
2023-05-11T09:15:11.678Z,1.23
2023-05-11T09:20:13.216Z,0.98
2023-05-11T09:25:16.965Z,0.93
2023-05-11T09:30:23.227Z,1.70
2023-05-11T09:35:26.495Z,1.48
2023-05-11T09:45:37.126Z,1.58
2023-05-11T09:50:38.708Z,1.20
2023-05-11T09:55:51.441Z,1.45
2023-05-11T10:00:53.752Z,1.42
2023-05-11T10:05:59.855Z,1.77
2023-05-11T10:11:04.539Z,1.50
2023-05-11T10:16:07.075Z,2.45
2023-05-11T10:26:10.006Z,1.35
2023-05-11T10:31:11.554Z,1.30
2023-05-11T10:41:35.939Z,1.60
2023-05-11T10:46:59.132Z,2.05
2023-05-11T10:52:21.951Z,2.30
2023-05-11T10:57:48.711Z,2.28
2023-05-11T11:02:50.276Z,2.80
2023-05-11T11:08:03.853Z,3.15
2023-05-11T11:13:08.643Z,3.10
2023-05-11T11:18:28.527Z,2.55
2023-05-11T11:23:50.024Z,2.47
2023-05-11T11:28:54.434Z,3.17
2023-05-11T11:33:58.997Z,3.47
2023-05-11T11:39:01.297Z,4.07
2023-05-11T11:44:03.640Z,3.22
2023-05-11T11:49:09.036Z,3.80
2023-05-11T11:54:10.673Z,3.58
2023-05-11T11:59:13.962Z,4.57
2023-05-11T12:04:33.826Z,4.82
2023-05-11T12:09:36.963Z,4.88
2023-05-11T12:14:39.306Z,4.18
2023-05-11T12:19:44.383Z,4.50
2023-05-11T12:24:45.875Z,4.30
2023-05-11T12:29:50.821Z,4.43
2023-05-11T12:35:04.232Z,4.57
2023-05-11T12:40:06.484Z,4.70
2023-05-11T12:45:08.615Z,4.05
2023-05-11T12:50:10.236Z,3.80
2023-05-11T12:55:11.887Z,4.88
2023-05-11T13:00:14.730Z,4.13
2023-05-11T13:05:16.831Z,4.57
2023-05-11T13:10:23.830Z,5.18
2023-05-11T13:15:25.411Z,4.22
2023-05-11T13:20:29.595Z,3.78
2023-05-11T13:25:32.088Z,3.83
2023-05-11T13:30:34.976Z,4.00
2023-05-11T13:35:41.352Z,3.72
2023-05-11T13:40:42.904Z,3.45
2023-05-11T13:45:44.407Z,3.35
2023-05-11T13:50:45.962Z,3.20
2023-05-11T13:55:47.453Z,3.72
2023-05-11T14:01:06.523Z,5.97
2023-05-11T14:06:09.048Z,4.60
2023-05-11T14:11:10.535Z,4.40
2023-05-11T14:16:12.705Z,4.55
2023-05-11T14:21:14.284Z,4.38
2023-05-11T14:26:16.490Z,4.95
2023-05-11T14:31:18.005Z,5.07
2023-05-11T14:36:19.500Z,5.03
2023-05-11T14:41:21.595Z,4.97
2023-05-11T14:46:25.802Z,4.75
2023-05-11T14:51:28.056Z,4.80
2023-05-11T14:56:29.631Z,5.65
2023-05-11T15:01:31.222Z,5.75
2023-05-11T15:06:33.107Z,5.97
2023-05-11T15:11:35.422Z,5.13
2023-05-11T15:16:37.399Z,4.85
2023-05-11T15:21:38.968Z,5.22
2023-05-11T15:26:40.460Z,5.15
2023-05-11T15:31:42.385Z,5.38
2023-05-11T15:36:45.607Z,6.22
2023-05-11T15:41:47.105Z,8.10
2023-05-11T15:46:49.023Z,6.57
2023-05-11T15:51:50.546Z,6.72
2023-05-11T15:56:52.423Z,7.70
2023-05-11T16:01:54.540Z,7.57
2023-05-11T16:06:58.114Z,7.38
2023-05-11T16:12:00.957Z,8.50
2023-05-11T16:17:02.824Z,9.50
2023-05-11T16:22:04.443Z,9.85
2023-05-11T16:27:05.941Z,11.82
2023-05-11T16:32:07.491Z,10.30
2023-05-11T16:37:10.177Z,10.48
2023-05-11T16:42:12.011Z,11.95
2023-05-11T16:47:13.535Z,10.65
2023-05-11T16:52:15.027Z,9.30
2023-05-11T16:57:16.533Z,10.98
2023-05-11T17:02:19.675Z,9.55
2023-05-11T17:07:21.329Z,10.13
2023-05-11T17:12:23.467Z,11.68
2023-05-11T17:17:25.022Z,10.40
2023-05-11T17:22:28.074Z,10.50
2023-05-11T17:27:32.360Z,10.50
2023-05-11T17:32:34.252Z,9.07
2023-05-11T17:37:35.929Z,8.63
2023-05-11T17:42:37.495Z,8.00
2023-05-11T17:47:39.190Z,6.18
2023-05-11T17:52:41.772Z,5.85
2023-05-11T17:57:43.281Z,5.80
2023-05-11T18:02:47.845Z,7.13
2023-05-11T18:07:49.865Z,10.70
2023-05-11T18:12:51.430Z,14.02
2023-05-11T18:17:54.195Z,14.38
2023-05-11T18:22:56.897Z,9.73
2023-05-11T18:28:02.127Z,8.10
2023-05-11T18:33:03.761Z,7.63
2023-05-11T18:38:05.363Z,6.68
2023-05-11T18:43:06.880Z,5.97
2023-05-11T18:48:08.537Z,6.60
2023-05-11T18:53:10.129Z,5.80
2023-05-11T18:58:12.732Z,5.90
2023-05-11T19:03:15.055Z,5.68
2023-05-11T19:08:16.773Z,6.28
2023-05-11T19:13:18.899Z,5.88
2023-05-11T19:18:20.472Z,6.43
2023-05-11T19:23:22.177Z,6.65
2023-05-11T19:28:23.771Z,7.57
2023-05-11T19:33:25.288Z,7.45
2023-05-11T19:38:26.879Z,7.93
2023-05-11T19:43:28.415Z,7.75
2023-05-11T19:48:30.390Z,6.90
2023-05-11T19:53:32.018Z,8.00
2023-05-11T19:58:33.528Z,7.63
2023-05-11T20:03:35.182Z,8.25
2023-05-11T20:08:37.268Z,7.63
2023-05-11T20:13:38.841Z,7.03
2023-05-11T20:18:40.508Z,7.35
2023-05-11T20:23:42.082Z,8.85
2023-05-11T20:28:43.626Z,7.32
2023-05-11T20:38:49.917Z,7.60
2023-05-11T20:43:52.466Z,7.55
2023-05-11T20:48:53.980Z,7.28
2023-05-11T20:53:55.475Z,7.50
2023-05-11T20:58:57.002Z,9.48
2023-05-11T21:03:58.496Z,6.82
2023-05-11T21:09:00.303Z,7.57
2023-05-11T21:14:01.805Z,7.78
2023-05-11T21:19:03.362Z,8.20
2023-05-11T21:24:06.124Z,9.60
2023-05-11T21:29:07.669Z,7.82
2023-05-11T21:34:09.176Z,7.88
2023-05-11T21:39:12.887Z,9.05
2023-05-11T21:44:14.476Z,8.50
2023-05-11T21:49:16.047Z,7.47
2023-05-11T21:54:22.070Z,7.95
2023-05-11T21:59:26.663Z,8.00
2023-05-11T22:04:28.444Z,7.65
2023-05-11T22:09:31.434Z,7.57
2023-05-11T22:14:32.993Z,7.90
2023-05-11T22:19:34.509Z,7.53
2023-05-11T22:24:36.054Z,8.50
2023-05-11T22:29:37.565Z,7.28
2023-05-11T22:34:39.065Z,6.88
2023-05-11T22:39:40.588Z,9.52
2023-05-11T22:44:42.255Z,8.20
2023-05-11T22:49:43.801Z,7.43
2023-05-11T22:54:45.305Z,9.63
2023-05-11T22:59:46.847Z,7.78
2023-05-11T23:04:54.552Z,8.27
2023-05-11T23:09:56.238Z,7.97
2023-05-11T23:14:57.870Z,9.57
2023-05-11T23:19:59.407Z,9.00
2023-05-11T23:25:01.180Z,11.98
2023-05-11T23:30:02.687Z,10.30
2023-05-11T23:35:04.391Z,10.80
2023-05-11T23:40:07.139Z,12.18
2023-05-11T23:45:08.933Z,12.32
2023-05-11T23:50:11.369Z,10.52
2023-05-11T23:55:12.857Z,12.80
